Details From EGPK - Prestwick
To EGPE - Inverness
Flight Number -
Tags Generated
Created
Modified
Stats Distance 125 nm / 231 km
Max Altitude 0 ft / 0 m
Waypoints 2
Social Downloads 2
Likes 0
Share VATSIM

Download

Looking for another format? Having issues loading an existing format? Contact us
Advertisement - Login to hide

Notes

Generated

Route

EGPK EGPE

ID Type Via Altitude Latitude Longitude Leg Dist Tot Dist Heading (true) Name
O EGPK APT - 0 ft / 0 m 55.48836˚ -4.58741˚ - 0 nm - -
O EGPE APT - 0 ft / 0 m 57.54464˚ -4.05987˚ 124 nm 124 nm 8° / 8° -

Altitude Profile

Advertisement - Login to hide

EGPK

Details ICAO EGPK (PIK)
Name Prestwick
Region United Kingdom
Timezone Europe/London (UTC+1.0)
Stats Elevation 65 ft / 20 m (AMSL)
Location 55.502302° -4.588363°
Runways 2
Magnetic Variation 2.653° W

METAR

EGPK 241350Z 35006KT 300V030 9999 FEW020 22/12 Q1023

Decode

TAF

TAF TAF EGPK 241102Z 2412/2512 03008KT CAVOK

Decode

Departure Runways

ID Width Length Bearing (true) Bearing (mag) Surface Threshold Offset Overrun Length
03 148 ft / 45 m 6,534 ft / 1,992 m 23.69° 26.34° Asphalt 538 ft / 164 m 0 ft / 0 m
13 151 ft / 46 m 9,789 ft / 2,984 m 121.38° 124.03° Asphalt 817 ft / 249 m 0 ft / 0 m
21 148 ft / 45 m 6,534 ft / 1,992 m 203.71° 206.36° Asphalt 0 ft / 0 m 0 ft / 0 m
31 151 ft / 46 m 9,789 ft / 2,984 m 301.42° 304.07° Asphalt 0 ft / 0 m 0 ft / 0 m

EGPE

Details ICAO EGPE (INV)
Name Inverness
Region United Kingdom
Timezone Europe/London (UTC+1.0)
Stats Elevation 31 ft / 9 m (AMSL)
Location 57.543039° -4.050944°
Runways 2
Magnetic Variation 2.802° W

METAR

EGPE 241350Z 06006KT 9999 6000N VCFG FEW035 16/13 Q1024

Decode

TAF

Not found

Destination Runways

ID Width Length Bearing (true) Bearing (mag) Surface Threshold Offset Overrun Length
05 151 ft / 46 m 6,179 ft / 1,883 m 49.39° 52.19° Asphalt 220 ft / 67 m 0 ft / 0 m
12 59 ft / 18 m 2,299 ft / 701 m 109.63° 112.43° Asphalt 0 ft / 0 m 0 ft / 0 m
23 151 ft / 46 m 6,179 ft / 1,883 m 229.41° 232.21° Asphalt 0 ft / 0 m 0 ft / 0 m
30 59 ft / 18 m 2,299 ft / 701 m 289.64° 292.44° Asphalt 0 ft / 0 m 0 ft / 0 m

Approach Navaids

Runway Type Ident Frequency Range Bearing (true) Bearing (mag) Slope Elevation
05 Localiser ILN 108.50 MHz 18 nm / 33 km 49.42° 52.22° - 31 ft / 9 m (AMSL)
05 Glidescope ILN 108.50 MHz 10 nm / 19 km 49.40° 52.21° 3.00° 31 ft / 9 m (AMSL)
05 DME ILN 108.50 MHz 18 nm / 33 km - - - 43 ft / 13 m (AMSL)
23 Localiser IDX 108.50 MHz 18 nm / 33 km 229.39° 232.19° - 31 ft / 9 m (AMSL)
23 Glidescope IDX 108.50 MHz 10 nm / 19 km 229.40° 232.21° 3.00° 31 ft / 9 m (AMSL)
23 DME IDX 108.50 MHz 18 nm / 33 km - - - 43 ft / 13 m (AMSL)

Popular Alternatives